KDRO/DRO METAR and TAF weather

Enter ICAO airport designator
Station Type Date Time Source
KDRO METAR 2022/11/30 10:53 UTC NOAA

KDRO 301053Z AUTO 02005KT 10SM CLR M12/M19 A3020 RMK AO2 SLP283 T11171194


Station Type Date Time Source
KDRO Decoded METAR 2022/11/30 10:53 UTC NOAA

DURANGO-LA PLATA COUNTY AIRPORT , CO, United States (KDRO) 37-09N 107-46W 2035M
Nov 30, 2022 - 05:53 AM EST / 2022.11.30 1053 UTC
Wind: from the NNE (020 degrees) at 6 MPH (5 KT):0
Visibility: 10 mile(s):0
Sky conditions: clear
Temperature: 10.9 F (-11.7 C)
Windchill: 1 F (-17 C):1
Dew Point: -2.9 F (-19.4 C)
Relative Humidity: 52%
Pressure (altimeter): 30.2 in. Hg (1022 hPa)
ob: KDRO 301053Z AUTO 02005KT 10SM CLR M12/M19 A3020 RMK AO2 SLP283 T11171194
cycle: 11

Station Type Date Time Source
KDRO TAF 2022/11/30 06:22 UTC NOAA

TAF KDRO 300520Z 3006/0106 05004KT P6SM SKC
FM301200 VRB03KT P6SM SKC
FM302200 13005KT P6SM SCT200

Example: see airport list